createdAt,value
2023-02-13T00:02:51.868Z,1015.81
2023-02-13T00:07:57.014Z,1015.70
2023-02-13T00:13:00.225Z,1015.71
2023-02-13T00:18:04.401Z,1015.57
2023-02-13T00:23:08.527Z,1015.53
2023-02-13T00:28:12.750Z,1015.47
2023-02-13T00:33:16.856Z,1015.35
2023-02-13T00:38:21.021Z,1015.36
2023-02-13T00:43:25.147Z,1015.26
2023-02-13T00:48:29.566Z,1015.19
2023-02-13T00:53:33.505Z,1015.12
2023-02-13T00:58:37.741Z,1015.18
2023-02-13T01:03:41.885Z,1015.08
2023-02-13T01:08:45.983Z,1015.02
2023-02-13T01:13:50.137Z,1015.12
2023-02-13T01:18:54.277Z,1015.20
2023-02-13T01:23:58.478Z,1015.25
2023-02-13T01:29:02.634Z,1015.40
2023-02-13T01:34:06.791Z,1015.60
2023-02-13T01:39:10.970Z,1015.85
2023-02-13T01:44:15.116Z,1015.99
2023-02-13T01:49:17.379Z,1016.35
2023-02-13T01:54:21.555Z,1016.46
2023-02-13T01:59:23.818Z,1016.54
2023-02-13T02:04:27.991Z,1016.63
2023-02-13T02:09:32.148Z,1016.69
2023-02-13T02:14:36.316Z,1016.63
2023-02-13T02:19:40.467Z,1016.63
2023-02-13T02:24:44.659Z,1016.69
2023-02-13T02:29:48.771Z,1016.75
2023-02-13T02:34:52.962Z,1016.87
2023-02-13T02:39:57.110Z,1016.72
2023-02-13T02:45:01.320Z,1016.71
2023-02-13T02:50:05.446Z,1016.74
2023-02-13T02:55:09.613Z,1016.77
2023-02-13T03:00:13.738Z,1016.78
2023-02-13T03:05:17.920Z,1016.67
2023-02-13T03:10:22.083Z,1016.72
2023-02-13T03:15:26.271Z,1016.70
2023-02-13T03:20:30.385Z,1016.67
2023-02-13T03:25:34.737Z,1016.66
2023-02-13T03:30:38.805Z,1016.71
2023-02-13T03:35:42.916Z,1016.92
2023-02-13T03:40:47.090Z,1017.01
2023-02-13T03:45:49.408Z,1017.04
2023-02-13T03:50:53.518Z,1017.03
2023-02-13T03:55:57.637Z,1017.14
2023-02-13T04:01:01.823Z,1017.11
2023-02-13T04:06:05.988Z,1017.11
2023-02-13T04:11:10.152Z,1017.10
2023-02-13T04:16:14.368Z,1017.01
2023-02-13T04:21:16.578Z,1016.97
2023-02-13T04:26:20.736Z,1016.91
2023-02-13T04:31:25.055Z,1016.84
2023-02-13T04:36:29.072Z,1016.73
2023-02-13T04:41:33.215Z,1016.71
2023-02-13T04:46:37.371Z,1016.62
2023-02-13T04:51:41.567Z,1016.58
2023-02-13T04:56:45.729Z,1016.40
2023-02-13T05:01:49.923Z,1016.34
2023-02-13T05:06:54.042Z,1016.32
2023-02-13T05:11:58.192Z,1016.38
2023-02-13T05:17:02.375Z,1016.30
2023-02-13T05:22:06.555Z,1016.35
2023-02-13T05:27:10.708Z,1016.33
2023-02-13T05:32:13.364Z,1016.27
2023-02-13T05:37:17.117Z,1016.27
2023-02-13T05:42:19.437Z,1016.28
2023-02-13T05:47:23.565Z,1016.23
2023-02-13T05:52:27.737Z,1016.27
2023-02-13T05:57:33.907Z,1016.38
2023-02-13T06:02:36.161Z,1016.38
2023-02-13T06:07:40.209Z,1016.33
2023-02-13T06:12:44.402Z,1016.36
2023-02-13T06:17:48.540Z,1016.40
2023-02-13T06:22:52.705Z,1016.39
2023-02-13T06:27:56.916Z,1016.48
2023-02-13T06:33:01.031Z,1016.56
2023-02-13T06:38:05.165Z,1016.44
2023-02-13T06:43:09.412Z,1016.34
2023-02-13T06:48:13.517Z,1016.23
2023-02-13T06:53:17.666Z,1016.08
2023-02-13T06:58:21.874Z,1016.02
2023-02-13T07:03:25.988Z,1015.81
2023-02-13T07:08:30.194Z,1015.69
2023-02-13T07:13:34.334Z,1015.53
2023-02-13T07:18:38.738Z,1015.38
2023-02-13T07:23:42.674Z,1015.26
2023-02-13T07:28:44.918Z,1015.32
2023-02-13T07:33:49.139Z,1015.21
2023-02-13T07:38:51.367Z,1015.06
2023-02-13T07:43:55.544Z,1014.89
2023-02-13T07:48:59.719Z,1014.85
2023-02-13T07:54:03.853Z,1014.62
2023-02-13T07:59:08.199Z,1014.65
2023-02-13T08:04:12.291Z,1014.65
2023-02-13T08:09:16.366Z,1014.53
2023-02-13T08:14:20.530Z,1014.53
2023-02-13T08:19:24.720Z,1014.46
2023-02-13T08:24:28.855Z,1014.38
2023-02-13T08:29:33.040Z,1014.35
2023-02-13T08:34:37.306Z,1014.15
2023-02-13T08:39:41.341Z,1014.22
2023-02-13T08:44:45.520Z,1014.04
2023-02-13T08:49:49.692Z,1013.96
2023-02-13T08:54:53.852Z,1013.88
2023-02-13T08:59:58.015Z,1013.86
2023-02-13T09:05:02.188Z,1013.98
2023-02-13T09:10:06.320Z,1013.99
2023-02-13T09:15:10.472Z,1013.96
2023-02-13T09:20:14.658Z,1014.16
2023-02-13T09:25:16.911Z,1014.33
2023-02-13T09:30:21.092Z,1014.62
2023-02-13T09:35:25.290Z,1014.98
2023-02-13T09:40:29.406Z,1015.46
2023-02-13T09:45:33.599Z,1016.02
2023-02-13T09:50:37.735Z,1016.42
2023-02-13T09:55:41.915Z,1016.95
2023-02-13T10:00:46.091Z,1017.51
2023-02-13T10:05:50.238Z,1018.11
2023-02-13T10:10:54.427Z,1018.47
2023-02-13T10:15:59.086Z,1018.83
2023-02-13T10:21:02.724Z,1019.14
2023-02-13T10:26:06.892Z,1019.41
2023-02-13T10:31:11.139Z,1019.65
2023-02-13T10:36:15.220Z,1019.92
2023-02-13T10:41:19.352Z,1020.25
2023-02-13T10:46:23.561Z,1020.29
2023-02-13T10:51:27.695Z,1020.46
2023-02-13T10:56:31.865Z,1020.67
2023-02-13T11:01:36.083Z,1020.88
2023-02-13T11:06:40.189Z,1020.83
2023-02-13T11:11:42.440Z,1021.04
2023-02-13T11:16:46.737Z,1021.16
2023-02-13T11:21:48.865Z,1021.06
2023-02-13T11:26:53.048Z,1021.17
2023-02-13T11:31:57.305Z,1021.41
2023-02-13T11:37:01.323Z,1021.47
2023-02-13T11:42:05.488Z,1021.51
2023-02-13T11:47:09.702Z,1021.50
2023-02-13T11:52:13.859Z,1021.77
2023-02-13T11:57:17.959Z,1021.78
2023-02-13T12:02:22.228Z,1021.76
2023-02-13T12:07:26.344Z,1021.75
2023-02-13T12:12:30.492Z,1021.82
2023-02-13T12:17:34.685Z,1021.95
2023-02-13T12:22:38.814Z,1021.90
2023-02-13T12:27:43.001Z,1021.93
2023-02-13T12:32:47.126Z,1022.00
2023-02-13T12:37:51.295Z,1021.81
2023-02-13T12:42:55.466Z,1021.58
2023-02-13T12:47:59.606Z,1021.49
2023-02-13T12:53:03.770Z,1021.52
2023-02-13T12:58:07.942Z,1021.68
2023-02-13T13:03:12.106Z,1021.67
2023-02-13T13:08:14.348Z,1021.76
2023-02-13T13:13:18.507Z,1021.77
2023-02-13T13:18:22.668Z,1021.70
2023-02-13T13:28:30.997Z,1021.74
2023-02-13T13:33:35.184Z,1021.74
2023-02-13T13:38:39.325Z,1021.60
2023-02-13T13:43:43.534Z,1021.61
2023-02-13T13:48:47.667Z,1021.62
2023-02-13T13:53:51.821Z,1021.58
2023-02-13T13:58:55.955Z,1021.37
2023-02-13T14:04:00.116Z,1021.10
2023-02-13T14:09:04.299Z,1021.11
2023-02-13T14:14:08.446Z,1021.15
2023-02-13T14:19:12.625Z,1021.09
2023-02-13T14:24:16.787Z,1020.98
2023-02-13T14:29:20.957Z,1020.99
2023-02-13T14:34:25.068Z,1020.77
2023-02-13T14:39:29.289Z,1020.75
2023-02-13T14:44:33.415Z,1020.70
2023-02-13T14:49:37.599Z,1020.75
2023-02-13T14:54:41.709Z,1020.77
2023-02-13T14:59:44.011Z,1020.68
2023-02-13T15:04:48.238Z,1020.66
2023-02-13T15:09:50.430Z,1020.55
2023-02-13T15:14:56.625Z,1020.50
2023-02-13T15:19:56.868Z,1020.34
2023-02-13T15:25:01.006Z,1020.24
2023-02-13T15:30:05.301Z,1020.16
2023-02-13T15:35:09.331Z,1020.11
2023-02-13T15:40:13.516Z,1020.17
2023-02-13T15:45:17.650Z,1020.50
2023-02-13T15:50:21.790Z,1020.38
2023-02-13T15:55:26.012Z,1020.28
2023-02-13T16:00:30.120Z,1020.41
2023-02-13T16:05:39.795Z,1020.24
2023-02-13T16:10:38.509Z,1019.72
2023-02-13T16:15:42.639Z,1019.41
2023-02-13T16:20:46.786Z,1019.14
2023-02-13T16:25:51.038Z,1018.90
2023-02-13T16:30:55.167Z,1018.71
2023-02-13T16:35:59.276Z,1018.46
2023-02-13T16:41:03.453Z,1018.29
2023-02-13T16:46:07.719Z,1018.09
2023-02-13T16:51:11.736Z,1017.99
2023-02-13T16:56:15.908Z,1017.83
2023-02-13T17:01:20.138Z,1017.73
2023-02-13T17:06:22.514Z,1017.51
2023-02-13T17:11:26.519Z,1017.32
2023-02-13T17:16:30.675Z,1016.98
2023-02-13T17:21:34.817Z,1016.69
2023-02-13T17:26:39.013Z,1016.60
2023-02-13T17:31:43.304Z,1016.52
2023-02-13T17:36:47.316Z,1016.39
2023-02-13T17:41:51.474Z,1016.31
2023-02-13T17:46:55.640Z,1016.22
2023-02-13T17:51:59.803Z,1016.10
2023-02-13T17:57:03.961Z,1015.72
2023-02-13T18:02:08.149Z,1015.50
2023-02-13T18:07:12.288Z,1015.15
2023-02-13T18:12:16.468Z,1014.79
2023-02-13T18:17:20.677Z,1014.61
2023-02-13T18:22:24.749Z,1014.41
2023-02-13T18:27:28.966Z,1014.37
2023-02-13T18:32:33.087Z,1014.27
2023-02-13T18:37:37.253Z,1014.10
2023-02-13T18:42:41.412Z,1013.95
2023-02-13T18:47:45.610Z,1013.80
2023-02-13T18:52:47.892Z,1013.70
2023-02-13T18:57:52.011Z,1013.67
2023-02-13T19:02:56.220Z,1013.65
2023-02-13T19:08:00.913Z,1013.58
2023-02-13T19:13:04.523Z,1013.45
2023-02-13T19:18:08.651Z,1013.32
2023-02-13T19:23:12.843Z,1013.24
2023-02-13T19:28:16.990Z,1013.22
2023-02-13T19:33:21.169Z,1013.12
2023-02-13T19:38:25.312Z,1013.05
2023-02-13T19:43:29.510Z,1013.03
2023-02-13T19:48:33.637Z,1013.08
2023-02-13T19:53:37.838Z,1013.15
2023-02-13T19:58:41.972Z,1013.04
2023-02-13T20:03:46.178Z,1013.15
2023-02-13T20:08:50.340Z,1013.14
2023-02-13T20:13:54.488Z,1013.16
2023-02-13T20:18:58.646Z,1013.03
2023-02-13T20:24:02.793Z,1012.98
2023-02-13T20:29:06.961Z,1012.96
2023-02-13T20:34:11.111Z,1012.81
2023-02-13T20:39:13.382Z,1012.83
2023-02-13T20:44:17.544Z,1012.79
2023-02-13T20:49:19.815Z,1012.72
2023-02-13T20:54:24.007Z,1012.81
2023-02-13T20:59:26.260Z,1012.70
2023-02-13T21:04:30.426Z,1012.76
2023-02-13T21:09:34.577Z,1012.75
2023-02-13T21:14:38.765Z,1012.87
2023-02-13T21:19:41.040Z,1012.76
2023-02-13T21:24:45.225Z,1012.70
2023-02-13T21:29:49.411Z,1012.80
2023-02-13T21:34:53.523Z,1012.84
2023-02-13T21:39:57.662Z,1012.66
2023-02-13T21:45:01.889Z,1012.65
2023-02-13T21:50:06.039Z,1012.62
2023-02-13T21:55:10.182Z,1012.57
2023-02-13T22:00:14.353Z,1012.59
2023-02-13T22:05:18.644Z,1012.53
2023-02-13T22:10:22.686Z,1012.48
2023-02-13T22:15:26.863Z,1012.44
2023-02-13T22:20:31.109Z,1012.55
2023-02-13T22:25:35.161Z,1012.69
2023-02-13T22:30:39.672Z,1012.70
2023-02-13T22:35:43.515Z,1012.67
2023-02-13T22:40:47.645Z,1012.90
2023-02-13T22:45:49.950Z,1012.94
2023-02-13T22:50:54.085Z,1012.89
2023-02-13T22:55:56.388Z,1012.91
2023-02-13T23:01:00.874Z,1012.93
2023-02-13T23:06:04.714Z,1012.95
2023-02-13T23:11:08.875Z,1012.94
2023-02-13T23:16:13.080Z,1013.01
2023-02-13T23:21:17.214Z,1012.98
2023-02-13T23:31:25.590Z,1012.95
2023-02-13T23:36:29.677Z,1013.02
2023-02-13T23:41:33.856Z,1012.96
2023-02-13T23:46:38.155Z,1012.92
2023-02-13T23:51:42.160Z,1012.74
2023-02-13T23:56:46.320Z,1012.78
